Terminal Aerodrome Forecast
Issued by NWS Central Illinois

Home | Current Version | Previous Version | Text Only | Print | Product List | Glossary On
Versions: 1 2 3 4 5 6 7 8 9 10 11 12 13 14 15 16 17 18 19 20
000
FTUS43 KILX 260000 AAA
TAFPIA
TAF AMD
KPIA 260009Z 2600/2624 02012G20KT P6SM BKN035
     FM260500 01009KT P6SM SCT035
     FM260800 33004KT P6SM SCT015 BKN050
     FM261400 25007KT P6SM BKN025
     FM261900 20008KT P6SM OVC025=

USA.gov is the U.S. government's official web portal to all federal, state and local government web resources and services.